Time;durP1;ratioP1;P1;durP2;ratioP2;P2;SDS_P1;SDS_P2;PMS_P1;PMS_P2;Temp;Humidity;BMP_temperature;BMP_pressure;BME280_temperature;BME280_humidity;BME280_pressure;Samples;Min_cycle;Max_cycle;Signal;HPM_P1;HPM_P2
2022/04/01 00:02:17;;;;;;;;;1.00;1.00;;;;;6.24;46.71;99960.81;5049327;28;45053;-68
2022/04/01 00:04:43;;;;;;;;;1.50;1.00;;;;;6.83;47.20;100049.31;5044361;28;45179;-68
2022/04/01 00:07:08;;;;;;;;;2.50;0.00;;;;;6.73;46.57;100030.38;5052015;28;45167;-69
2022/04/01 00:09:34;;;;;;;;;0.00;0.00;;;;;6.87;46.94;100054.72;5051086;28;45577;-68
2022/04/01 00:11:59;;;;;;;;;3.00;0.00;;;;;6.39;46.84;99974.53;5051696;28;45114;-70
2022/04/01 00:14:25;;;;;;;;;4.25;1.75;;;;;6.81;46.68;100044.78;5050266;28;44969;-69
2022/04/01 00:16:51;;;;;;;;;2.00;0.75;;;;;6.69;46.69;100037.34;5033055;28;45137;-69
2022/04/01 00:19:17;;;;;;;;;2.00;1.00;;;;;6.65;46.94;100024.88;5050888;28;45990;-69
2022/04/01 00:21:43;;;;;;;;;2.25;1.00;;;;;6.81;46.98;100037.75;5048635;28;45063;-69
2022/04/01 00:24:08;;;;;;;;;1.25;0.75;;;;;6.77;47.49;100021.66;5031975;28;45142;-68
2022/04/01 00:26:33;;;;;;;;;1.00;1.00;;;;;6.99;47.10;100057.72;5031647;28;45180;-69
2022/04/01 00:28:59;;;;;;;;;0.50;0.50;;;;;6.63;46.91;99978.78;5030761;28;45675;-69
2022/04/01 00:31:24;;;;;;;;;4.25;0.00;;;;;7.01;46.84;100048.94;5030811;28;45074;-68
2022/04/01 00:34:15;;;;;;;;;0.50;0.50;;;;;6.90;46.93;100054.81;5029607;28;45208;-68
2022/04/01 00:36:34;;;;;;;;;2.00;1.00;;;;;6.92;47.54;100053.09;5046810;28;45378;-69
2022/04/01 00:39:00;;;;;;;;;1.00;1.00;;;;;6.81;47.25;100036.81;5048254;28;45148;-68
2022/04/01 00:41:25;;;;;;;;;1.75;1.50;;;;;6.85;47.14;100035.16;5048411;28;45339;-70
2022/04/01 00:44:13;;;;;;;;;2.00;0.00;;;;;6.86;47.35;100021.94;5048950;28;45332;-69
2022/04/01 00:46:44;;;;;;;;;0.25;0.00;;;;;6.89;47.07;100037.94;5048866;28;45223;-69
2022/04/01 00:49:09;;;;;;;;;1.75;1.00;;;;;6.84;47.27;100031.59;5031535;28;46124;-69
2022/04/01 00:51:37;;;;;;;;;1.00;1.00;;;;;6.71;47.63;100033.00;5026055;28;45149;-69
2022/04/01 00:54:05;;;;;;;;;4.00;1.00;;;;;6.60;48.09;100003.47;5029897;28;45269;-68
2022/04/01 00:56:31;;;;;;;;;0.50;0.50;;;;;6.78;47.54;100032.34;5030837;28;45371;-69
2022/04/01 00:58:57;;;;;;;;;1.75;0.75;;;;;6.43;47.92;99972.88;5024921;28;45651;-70
2022/04/01 01:01:24;;;;;;;;;0.25;0.00;;;;;6.54;48.08;99991.78;5028945;28;45178;-69
2022/04/01 01:03:50;;;;;;;;;1.75;1.75;;;;;6.64;48.11;99996.50;5039232;28;45465;-69
2022/04/01 01:06:17;;;;;;;;;0.00;0.00;;;;;6.62;48.32;100004.41;5040808;28;45383;-69
2022/04/01 01:08:42;;;;;;;;;0.25;0.00;;;;;6.69;48.84;100004.63;5038110;28;45400;-69
2022/04/01 01:11:08;;;;;;;;;0.75;0.00;;;;;5.29;48.00;99768.75;5025241;28;45129;-68
2022/04/01 01:13:34;;;;;;;;;1.00;0.00;;;;;6.38;47.63;99947.97;5029265;28;45046;-68
2022/04/01 01:16:00;;;;;;;;;2.25;0.50;;;;;6.71;48.34;99993.16;5038735;28;45269;-68
2022/04/01 01:18:25;;;;;;;;;1.00;1.00;;;;;6.69;48.27;99988.69;5045082;28;45494;-68
2022/04/01 01:20:51;;;;;;;;;0.00;0.00;;;;;6.71;47.78;99979.91;5042143;28;45435;-70
2022/04/01 01:23:16;;;;;;;;;0.00;0.00;;;;;6.75;48.17;99987.13;5038742;28;45617;-69
2022/04/01 01:25:43;;;;;;;;;3.00;0.00;;;;;6.81;48.11;99992.63;5032670;28;45678;-68
2022/04/01 01:28:08;;;;;;;;;1.50;0.50;;;;;6.30;48.10;99888.47;5035068;28;46178;-67
2022/04/01 01:30:34;;;;;;;;;1.00;1.00;;;;;6.59;48.94;99931.78;5036138;28;45438;-70
2022/04/01 01:33:01;;;;;;;;;3.00;0.00;;;;;6.66;48.69;99938.16;5043526;28;46288;-69
2022/04/01 01:35:28;;;;;;;;;1.75;1.75;;;;;6.90;49.28;99964.53;5031607;28;45148;-69
2022/04/01 01:37:54;;;;;;;;;0.00;0.00;;;;;6.96;49.38;99954.97;5036026;28;45905;-68
2022/04/01 01:40:20;;;;;;;;;0.75;0.75;;;;;6.89;49.26;99933.50;5042633;28;45407;-68
2022/04/01 01:42:46;;;;;;;;;1.00;0.00;;;;;6.84;49.35;99946.66;5037350;28;45324;-68
2022/04/01 01:45:11;;;;;;;;;1.00;1.00;;;;;6.98;49.49;99950.59;5025928;28;45368;-69
2022/04/01 01:47:37;;;;;;;;;0.50;0.50;;;;;7.03;50.25;99956.03;5022260;28;45454;-69
2022/04/01 01:55:31;;;;;;;;;2.50;0.00;;;;;6.88;51.74;99943.25;5037749;28;45403;-69
2022/04/01 01:57:57;;;;;;;;;2.00;0.25;;;;;6.85;51.54;99935.19;5037208;28;46066;-70
2022/04/01 02:00:24;;;;;;;;;0.00;0.00;;;;;6.42;51.88;99916.25;5036652;28;45316;-70
2022/04/01 02:02:49;;;;;;;;;1.25;0.00;;;;;6.70;51.83;99894.91;5036126;28;45202;-70
2022/04/01 02:05:16;;;;;;;;;0.00;0.00;;;;;6.94;51.41;99916.84;5034395;28;45103;-70
2022/04/01 02:07:47;;;;;;;;;2.50;1.00;;;;;6.92;51.67;99925.63;5034682;28;45069;-69
2022/04/01 02:10:15;;;;;;;;;1.00;0.00;;;;;6.85;51.50;99919.25;5034177;28;45239;-69
2022/04/01 02:12:43;;;;;;;;;0.50;0.00;;;;;6.86;51.51;99936.06;5034701;28;45041;-70
2022/04/01 02:15:10;;;;;;;;;3.25;0.00;;;;;6.89;52.11;99922.88;5031969;28;45356;-68
2022/04/01 02:17:37;;;;;;;;;2.25;1.00;;;;;6.90;52.00;99925.59;5033638;28;45136;-69
2022/04/01 02:20:11;;;;;;;;;1.25;1.25;;;;;6.71;52.72;99892.31;5032949;28;45452;-70
2022/04/01 02:22:37;;;;;;;;;2.00;0.00;;;;;6.89;52.97;99915.81;5033299;28;44907;-68
2022/04/01 02:25:11;;;;;;;;;3.00;1.50;;;;;6.77;53.54;99881.88;5050065;28;45572;-69
2022/04/01 02:27:37;;;;;;;;;1.00;1.00;;;;;6.96;53.67;99911.56;5050949;28;45283;-69
2022/04/01 02:30:10;;;;;;;;;4.00;0.50;;;;;6.95;53.76;99904.47;5052685;28;44912;-69
2022/04/01 02:32:39;;;;;;;;;0.50;0.50;;;;;6.89;54.64;99877.75;5045526;28;45130;-70
2022/04/01 02:35:04;;;;;;;;;0.25;0.00;;;;;6.92;54.15;99897.31;5038031;28;45102;-69
2022/04/01 02:37:30;;;;;;;;;3.75;2.00;;;;;6.79;55.39;99853.59;5029193;28;45352;-69
2022/04/01 02:39:55;;;;;;;;;2.00;0.25;;;;;7.09;54.47;99895.09;5031816;28;45362;-69
2022/04/01 02:42:21;;;;;;;;;2.75;1.00;;;;;6.99;54.69;99901.91;5032174;28;45030;-69
2022/04/01 02:44:46;;;;;;;;;1.25;1.00;;;;;6.83;54.80;99883.81;5032514;28;45471;-70
2022/04/01 02:47:12;;;;;;;;;3.00;1.75;;;;;6.86;55.09;99899.78;5032332;28;45434;-69
2022/04/01 02:49:38;;;;;;;;;0.50;0.50;;;;;6.62;55.47;99869.06;5031888;28;45046;-69
2022/04/01 02:52:05;;;;;;;;;1.00;1.00;;;;;6.61;55.80;99888.47;5034205;28;45203;-69
2022/04/01 02:54:33;;;;;;;;;1.00;0.50;;;;;6.44;56.63;99864.13;5030157;28;45031;-69
2022/04/01 02:56:59;;;;;;;;;1.75;1.75;;;;;6.44;56.76;99872.09;5033219;28;45439;-69
2022/04/01 02:59:25;;;;;;;;;1.50;0.50;;;;;6.48;57.02;99864.22;5032498;28;45026;-69
2022/04/01 03:01:51;;;;;;;;;2.00;0.00;;;;;6.72;56.95;99896.75;5031929;28;45128;-70
2022/04/01 03:04:17;;;;;;;;;0.00;0.00;;;;;6.75;56.84;99885.34;5033782;28;45253;-68
2022/04/01 03:06:45;;;;;;;;;1.50;0.00;;;;;6.44;57.08;99850.88;5047568;28;45245;-68
2022/04/01 03:09:11;;;;;;;;;1.00;1.00;;;;;6.44;58.53;99871.19;5051939;28;44895;-69
2022/04/01 03:11:37;;;;;;;;;0.75;0.00;;;;;6.17;59.03;99845.69;5052956;28;45203;-70
2022/04/01 03:14:08;;;;;;;;;0.25;0.00;;;;;6.25;59.00;99857.41;5044061;28;45498;-68
2022/04/01 03:16:39;;;;;;;;;0.75;0.00;;;;;6.36;59.39;99878.94;5052074;28;46206;-68
2022/04/01 03:19:08;;;;;;;;;1.00;1.00;;;;;6.38;58.77;99882.50;5052877;28;45065;-70
2022/04/01 03:21:35;;;;;;;;;0.00;0.00;;;;;6.19;58.81;99836.00;5052168;28;45122;-68
2022/04/01 03:24:02;;;;;;;;;2.00;1.00;;;;;6.38;59.19;99866.59;5051793;28;45167;-68
2022/04/01 03:26:28;;;;;;;;;0.00;0.00;;;;;6.38;58.59;99860.41;5033819;28;47219;-68
2022/04/01 03:28:54;;;;;;;;;2.00;1.00;;;;;6.41;58.39;99864.03;5051438;28;45110;-68
2022/04/01 03:31:20;;;;;;;;;2.00;0.25;;;;;6.48;58.64;99861.56;5051372;28;45009;-69
2022/04/01 03:33:45;;;;;;;;;1.00;1.00;;;;;5.70;58.80;99713.47;5034882;28;45120;-70
2022/04/01 03:36:11;;;;;;;;;1.50;1.50;;;;;6.34;58.59;99827.59;5052026;28;45828;-68
2022/04/01 03:38:38;;;;;;;;;2.00;0.00;;;;;6.51;58.94;99862.56;5051363;28;45021;-70
2022/04/01 03:41:05;;;;;;;;;1.25;0.00;;;;;6.49;58.93;99856.31;5051609;28;45231;-70
2022/04/01 03:43:36;;;;;;;;;0.00;0.00;;;;;6.51;58.54;99857.25;5051424;28;44950;-70
2022/04/01 03:46:07;;;;;;;;;0.00;0.00;;;;;6.59;58.40;99847.75;5045282;28;45459;-70
2022/04/01 03:49:02;;;;;;;;;0.00;0.00;;;;;6.60;58.12;99841.59;5051282;28;44977;-70
2022/04/01 03:51:29;;;;;;;;;1.25;0.00;;;;;6.56;58.82;99850.31;5030430;28;45089;-69
2022/04/01 03:53:58;;;;;;;;;0.00;0.00;;;;;6.34;58.29;99818.75;5032916;28;45395;-69
2022/04/01 03:56:33;;;;;;;;;0.25;0.00;;;;;6.57;58.12;99853.88;5048665;28;45815;-70
2022/04/01 03:59:06;;;;;;;;;1.50;0.00;;;;;6.56;58.02;99846.75;5048565;28;45575;-68
2022/04/01 04:01:34;;;;;;;;;0.75;0.50;;;;;6.62;58.38;99855.78;5048988;28;45463;-69
2022/04/01 04:04:00;;;;;;;;;1.00;1.00;;;;;6.31;57.26;99803.63;5036910;28;45070;-69
2022/04/01 04:06:26;;;;;;;;;0.00;0.00;;;;;6.62;57.89;99858.44;5031178;28;45594;-70
2022/04/01 04:09:00;;;;;;;;;0.00;0.00;;;;;6.66;58.13;99854.13;5031704;28;45276;-69
2022/04/01 04:11:31;;;;;;;;;2.00;2.00;;;;;6.46;57.84;99850.91;5051565;28;44966;-68
2022/04/01 04:13:58;;;;;;;;;2.00;0.25;;;;;6.44;58.72;99857.94;5052354;28;45033;-70
2022/04/01 04:16:45;;;;;;;;;0.25;0.00;;;;;6.46;59.01;99865.06;5045399;28;45829;-69
2022/04/01 04:19:13;;;;;;;;;2.00;2.00;;;;;6.43;59.01;99854.41;5047485;28;44942;-70
2022/04/01 04:21:41;;;;;;;;;1.75;0.25;;;;;6.43;59.02;99843.78;5051085;28;44989;-69
2022/04/01 04:24:17;;;;;;;;;1.00;1.00;;;;;6.34;58.10;99824.03;5041799;28;45093;-69
2022/04/01 04:26:51;;;;;;;;;1.00;1.00;;;;;6.15;58.09;99812.88;5034763;28;45115;-70
2022/04/01 04:29:18;;;;;;;;;1.00;1.00;;;;;6.24;58.14;99822.88;5051268;28;45231;-69
2022/04/01 04:32:06;;;;;;;;;0.75;0.75;;;;;6.48;58.75;99853.59;5051765;28;44950;-69
2022/04/01 04:34:36;;;;;;;;;1.00;1.00;;;;;6.56;58.21;99846.75;5044731;28;45286;-70
2022/04/01 04:37:04;;;;;;;;;0.75;0.00;;;;;6.66;57.42;99858.53;5050382;28;45284;-70
2022/04/01 04:39:34;;;;;;;;;1.00;1.00;;;;;6.64;57.62;99851.41;5046089;28;44974;-70
2022/04/01 04:42:04;;;;;;;;;1.00;1.00;;;;;6.60;57.74;99840.66;5050020;28;45193;-70
2022/04/01 04:44:30;;;;;;;;;2.50;2.00;;;;;6.64;56.81;99850.53;5032563;28;45367;-70
2022/04/01 04:46:59;;;;;;;;;8.00;5.25;;;;;6.56;57.03;99863.56;5024919;28;46125;-70
2022/04/01 04:49:29;;;;;;;;;1.25;1.25;;;;;6.57;57.20;99864.50;5032771;28;46961;-70
2022/04/01 04:51:56;;;;;;;;;0.00;0.00;;;;;6.64;57.21;99859.38;5038431;28;45093;-70
2022/04/01 04:54:25;;;;;;;;;1.25;0.25;;;;;6.71;57.36;99859.56;5052504;28;44944;-70
2022/04/01 04:56:58;;;;;;;;;0.25;0.25;;;;;6.71;57.07;99867.53;5056209;28;45362;-71
2022/04/01 04:59:23;;;;;;;;;1.00;1.00;;;;;6.61;56.86;99845.13;5057044;28;45193;-69
2022/04/01 05:01:54;;;;;;;;;3.00;1.00;;;;;6.72;56.62;99879.94;5053067;28;45176;-70
2022/04/01 05:04:48;;;;;;;;;1.75;1.00;;;;;6.75;57.04;99859.69;5039217;28;45021;-70
2022/04/01 05:07:43;;;;;;;;;1.25;1.00;;;;;6.90;56.03;99875.13;5055886;28;46303;-71
2022/04/01 05:10:16;;;;;;;;;1.50;1.50;;;;;6.85;55.98;99873.19;5048214;28;45029;-70
2022/04/01 05:13:02;;;;;;;;;3.25;3.00;;;;;6.90;56.58;99879.56;5048222;28;45378;-69
2022/04/01 05:15:34;;;;;;;;;7.25;5.25;;;;;6.91;55.70;99884.00;5051252;28;45532;-69
2022/04/01 05:18:12;;;;;;;;;2.00;2.00;;;;;6.93;56.05;99895.53;5056325;28;45495;-69
2022/04/01 05:20:44;;;;;;;;;3.75;2.00;;;;;6.89;54.27;99904.31;5033013;28;45582;-70
2022/04/01 05:23:17;;;;;;;;;2.50;2.25;;;;;6.83;54.72;99897.06;5026240;28;45376;-69
2022/04/01 05:25:46;;;;;;;;;1.50;1.50;;;;;6.67;54.31;99903.69;5036107;28;45109;-69
2022/04/01 05:28:24;;;;;;;;;1.00;1.00;;;;;6.57;54.52;99893.69;5033679;28;45348;-70
2022/04/01 05:31:12;;;;;;;;;2.00;2.00;;;;;6.62;55.16;99906.22;5032208;28;45407;-70
2022/04/01 05:33:50;;;;;;;;;1.00;1.00;;;;;6.72;54.12;99895.88;5039535;28;45629;-70
2022/04/01 05:36:16;;;;;;;;;1.00;1.00;;;;;6.67;54.44;99903.69;5037794;28;45465;-70
2022/04/01 05:38:43;;;;;;;;;4.00;3.00;;;;;6.66;55.06;99906.31;5045415;28;46067;-71
2022/04/01 05:41:10;;;;;;;;;6.00;4.00;;;;;6.50;54.53;99883.72;5042580;28;45471;-70
2022/04/01 05:43:38;;;;;;;;;2.00;1.00;;;;;6.62;54.74;99908.88;5022729;28;45643;-69
2022/04/01 05:46:03;;;;;;;;;5.25;2.25;;;;;6.46;55.47;99886.28;5055051;28;45724;-69
2022/04/01 05:48:31;;;;;;;;;1.75;1.75;;;;;6.56;55.44;99913.09;5037067;28;46307;-70
2022/04/01 05:50:57;;;;;;;;;2.00;2.00;;;;;6.56;55.12;99919.31;5046751;28;45318;-70
2022/04/01 05:53:23;;;;;;;;;4.75;2.75;;;;;6.46;54.91;99903.97;5038711;28;45630;-69
2022/04/01 05:55:51;;;;;;;;;3.00;2.00;;;;;6.55;54.94;99924.56;5043381;28;45589;-69
2022/04/01 05:58:16;;;;;;;;;4.00;3.00;;;;;6.60;55.72;99922.94;5026224;28;46336;-70
2022/04/01 06:01:08;;;;;;;;;3.50;3.00;;;;;6.69;55.75;99932.94;5035678;28;45712;-75
2022/04/01 06:03:59;;;;;;;;;2.00;2.00;;;;;6.75;55.75;99923.41;5041732;28;45466;-70
2022/04/01 06:06:45;;;;;;;;;4.00;4.00;;;;;6.68;55.49;99942.63;5026381;28;45582;-68
2022/04/01 06:09:22;;;;;;;;;2.00;2.00;;;;;6.52;55.90;99940.44;5031078;28;45169;-68
2022/04/01 06:12:27;;;;;;;;;2.00;2.00;;;;;6.40;56.83;99940.94;5033315;28;45524;-70
2022/04/01 06:15:04;;;;;;;;;4.50;3.00;;;;;6.34;57.35;99946.97;5029468;28;45498;-68
2022/04/01 06:17:46;;;;;;;;;5.25;3.00;;;;;6.26;58.00;99945.84;5037028;28;45507;-69
2022/04/01 06:20:13;;;;;;;;;1.25;1.25;;;;;6.35;58.28;99962.03;5052074;28;45904;-68
2022/04/01 06:22:52;;;;;;;;;2.50;2.50;;;;;6.35;58.39;99951.44;5052912;28;45155;-70
2022/04/01 06:25:20;;;;;;;;;6.50;4.25;;;;;5.86;57.97;99873.88;5049990;28;45313;-71
2022/04/01 06:27:48;;;;;;;;;6.00;4.00;;;;;6.41;58.18;99969.28;5038722;28;45341;-70
2022/04/01 06:30:22;;;;;;;;;4.00;4.00;;;;;6.37;58.81;99968.28;5015559;28;47251;-67
2022/04/01 06:33:15;;;;;;;;;3.00;2.00;;;;;6.45;59.12;99972.06;5016824;28;45518;-68
2022/04/01 06:35:49;;;;;;;;;14.00;10.00;;;;;6.31;58.84;99951.28;5033200;28;45472;-70
2022/04/01 06:38:40;;;;;;;;;3.25;2.25;;;;;6.35;58.51;99958.47;5030740;28;45187;-68
2022/04/01 06:41:09;;;;;;;;;4.50;4.00;;;;;6.33;58.67;99973.44;5030172;28;45611;-70
2022/04/01 06:43:35;;;;;;;;;7.25;6.75;;;;;6.31;58.63;99970.75;5031309;28;45372;-67
2022/04/01 06:46:03;;;;;;;;;4.00;4.00;;;;;6.19;58.73;99955.34;5020752;28;45703;-71
2022/04/01 06:48:29;;;;;;;;;5.75;3.25;;;;;6.18;58.78;99952.66;5023650;28;45376;-71
2022/04/01 06:50:56;;;;;;;;;4.50;4.50;;;;;6.30;58.59;99991.91;5024507;28;45708;-67
2022/04/01 06:53:21;;;;;;;;;7.00;4.50;;;;;6.03;59.01;99966.34;5024095;28;45471;-70
2022/04/01 06:55:48;;;;;;;;;31.00;29.75;;;;;5.96;59.45;99977.56;5022843;28;45520;-68
2022/04/01 06:58:14;;;;;;;;;9.25;6.75;;;;;5.76;59.82;99974.25;5016383;28;45474;-70
2022/04/01 07:00:43;;;;;;;;;8.50;4.00;;;;;6.08;59.12;99960.31;5024766;28;46558;-69
2022/04/01 07:03:09;;;;;;;;;5.50;5.50;;;;;6.20;59.68;99996.03;5026600;28;45444;-71
2022/04/01 07:05:35;;;;;;;;;5.25;3.75;;;;;6.02;60.08;99969.81;5026586;28;45304;-69
2022/04/01 07:08:05;;;;;;;;;6.75;3.75;;;;;5.90;59.52;99970.28;5025800;28;45656;-69
2022/04/01 07:10:31;;;;;;;;;11.25;7.50;;;;;5.87;60.37;99971.13;5025583;28;45412;-70
2022/04/01 07:12:58;;;;;;;;;3.25;3.25;;;;;5.90;59.95;99963.22;5030033;28;45482;-68
2022/04/01 07:15:24;;;;;;;;;7.25;5.75;;;;;6.12;59.91;100016.09;5029140;28;45534;-70
2022/04/01 07:17:50;;;;;;;;;5.50;5.50;;;;;6.09;61.17;100014.28;5020629;28;45746;-71
2022/04/01 07:20:15;;;;;;;;;5.25;5.25;;;;;6.19;59.74;100015.47;5031195;28;46106;-70
2022/04/01 07:22:41;;;;;;;;;4.00;4.00;;;;;6.04;60.77;99984.94;5022619;28;52077;-69
2022/04/01 07:25:08;;;;;;;;;5.25;5.25;;;;;6.19;59.63;99996.91;5020760;28;46345;-70
2022/04/01 07:27:34;;;;;;;;;7.00;7.00;;;;;6.24;59.45;100013.84;5027783;28;45510;-70
2022/04/01 07:29:59;;;;;;;;;6.50;6.50;;;;;6.00;59.60;99988.34;5025581;28;46166;-70
2022/04/01 07:32:29;;;;;;;;;7.75;7.75;;;;;6.25;59.99;100023.59;5023192;28;45563;-72
2022/04/01 07:34:56;;;;;;;;;8.50;7.00;;;;;6.32;59.42;100022.03;5021283;28;45652;-70
2022/04/01 07:37:24;;;;;;;;;7.50;7.50;;;;;6.24;59.56;100032.44;5022159;28;45544;-69
2022/04/01 07:39:54;;;;;;;;;9.25;6.75;;;;;6.14;59.38;100011.75;5023315;28;45613;-71
2022/04/01 07:42:21;;;;;;;;;6.00;6.00;;;;;6.06;59.95;100014.16;5021090;28;45777;-70
2022/04/01 07:44:48;;;;;;;;;6.75;6.25;;;;;6.16;59.26;100033.94;5026046;28;45649;-70
2022/04/01 07:47:14;;;;;;;;;9.50;8.25;;;;;6.18;59.65;100022.50;5026172;28;45628;-70
2022/04/01 07:49:41;;;;;;;;;10.00;8.00;;;;;6.16;59.85;100016.25;5023659;28;45441;-71
2022/04/01 07:52:08;;;;;;;;;7.00;7.00;;;;;6.19;59.64;100042.00;5025460;28;45501;-71
2022/04/01 07:54:35;;;;;;;;;6.25;6.25;;;;;6.04;58.85;100007.91;5027826;28;45585;-71
2022/04/01 07:57:04;;;;;;;;;6.00;5.50;;;;;6.17;59.27;100044.59;5019594;28;45351;-72
2022/04/01 07:59:30;;;;;;;;;6.00;6.00;;;;;6.20;59.15;100063.25;5024821;28;45642;-71
2022/04/01 08:01:56;;;;;;;;;7.25;5.00;;;;;6.17;58.72;100051.63;5018151;28;45425;-71
2022/04/01 08:04:25;;;;;;;;;8.50;8.50;;;;;6.20;59.39;100049.06;5022614;28;45510;-70
2022/04/01 08:06:51;;;;;;;;;5.00;5.00;;;;;6.11;58.92;100035.53;5025004;28;45794;-71
2022/04/01 08:09:16;;;;;;;;;11.25;7.50;;;;;6.37;58.45;100069.09;5017546;28;45727;-70
2022/04/01 08:11:41;;;;;;;;;8.00;7.25;;;;;5.93;59.11;99983.66;5020677;28;45620;-71
2022/04/01 08:14:07;;;;;;;;;10.75;10.75;;;;;6.54;59.23;100076.72;5030115;28;45148;-69
2022/04/01 08:16:32;;;;;;;;;8.00;6.75;;;;;6.28;58.04;100067.03;5022816;28;45640;-71
2022/04/01 08:18:58;;;;;;;;;8.25;7.00;;;;;6.25;57.79;100088.19;5028059;28;45536;-70
2022/04/01 08:21:23;;;;;;;;;7.00;6.50;;;;;6.12;58.46;100064.75;5024990;28;45496;-70
2022/04/01 08:23:49;;;;;;;;;24.00;21.00;;;;;6.14;59.21;100064.78;5003124;28;45498;-70
2022/04/01 08:26:14;;;;;;;;;19.50;14.75;;;;;5.87;59.48;100007.31;5021232;28;45527;-69
2022/04/01 08:28:40;;;;;;;;;7.00;7.00;;;;;6.46;58.18;100108.28;5027521;28;45535;-71
2022/04/01 08:31:09;;;;;;;;;23.50;18.00;;;;;6.49;58.14;100100.44;5018935;28;46037;-72
2022/04/01 08:33:37;;;;;;;;;23.00;21.75;;;;;6.51;57.95;100119.94;5018633;28;45614;-70
2022/04/01 08:36:03;;;;;;;;;8.50;8.50;;;;;6.22;57.85;100074.81;5025053;28;45539;-70
2022/04/01 08:38:29;;;;;;;;;9.75;8.50;;;;;6.53;57.94;100109.38;5020745;28;46030;-73
2022/04/01 08:40:55;;;;;;;;;9.25;9.25;;;;;6.57;57.64;100116.63;5023521;28;45592;-71
2022/04/01 08:43:35;;;;;;;;;8.00;8.00;;;;;6.40;57.34;100101.06;5027359;28;45613;-70
2022/04/01 08:46:05;;;;;;;;;15.25;13.75;;;;;6.34;57.98;100074.31;5027442;28;45432;-70
2022/04/01 08:48:32;;;;;;;;;17.75;17.75;;;;;6.12;59.01;100032.94;5018778;28;45710;-71
2022/04/01 08:50:58;;;;;;;;;10.00;9.50;;;;;6.15;57.66;100033.00;5028540;28;45608;-71
2022/04/01 08:53:23;;;;;;;;;14.00;12.50;;;;;6.68;57.43;100124.91;5026249;28;45470;-71
2022/04/01 08:55:51;;;;;;;;;7.75;7.75;;;;;6.52;56.62;100112.91;5019357;28;45249;-72
2022/04/01 08:58:19;;;;;;;;;22.00;16.25;;;;;6.32;57.44;100083.97;5025973;28;46110;-70
2022/04/01 09:00:46;;;;;;;;;8.50;8.50;;;;;6.68;57.96;100143.50;5023446;28;45398;-71
2022/04/01 09:03:13;;;;;;;;;10.50;9.00;;;;;6.74;57.19;100164.94;5028574;28;47150;-71
2022/04/01 09:05:46;;;;;;;;;7.00;7.00;;;;;6.68;56.83;100143.50;5011480;28;45951;-70
2022/04/01 09:08:16;;;;;;;;;11.50;9.00;;;;;6.63;57.37;100136.28;5024968;28;45708;-70
2022/04/01 09:11:10;;;;;;;;;9.75;9.00;;;;;6.21;55.74;100064.16;5007718;28;45503;-70
2022/04/01 09:13:47;;;;;;;;;8.50;8.50;;;;;6.68;55.94;100173.56;5003912;28;45373;-71
2022/04/01 09:16:33;;;;;;;;;25.00;20.25;;;;;6.52;56.50;100164.22;5013695;28;45421;-71
2022/04/01 09:19:04;;;;;;;;;14.00;12.50;;;;;6.16;56.74;100060.44;4991087;28;46965;-70
2022/04/01 09:21:36;;;;;;;;;12.00;9.75;;;;;6.47;55.36;100128.69;5018013;28;45752;-70
2022/04/01 09:24:03;;;;;;;;;14.25;12.75;;;;;6.00;56.36;100053.72;5019253;28;45615;-70
2022/04/01 09:26:34;;;;;;;;;16.75;15.25;;;;;6.70;56.93;100187.81;5024192;28;45588;-70
2022/04/01 09:29:00;;;;;;;;;15.75;14.00;;;;;6.44;56.96;100117.97;5027684;28;46239;-70
2022/04/01 09:31:37;;;;;;;;;9.50;9.50;;;;;6.02;55.66;100039.69;5020304;28;46337;-70
2022/04/01 09:34:09;;;;;;;;;16.50;14.50;;;;;5.66;55.31;100003.09;5019540;28;45828;-70
2022/04/01 09:36:38;;;;;;;;;9.00;7.75;;;;;6.80;55.58;100171.34;5026497;28;45669;-70
2022/04/01 09:39:16;;;;;;;;;13.25;11.50;;;;;6.51;54.55;100132.34;5024992;28;46852;-70
2022/04/01 09:41:44;;;;;;;;;10.25;9.25;;;;;6.68;54.71;100191.28;5021896;28;45671;-71
2022/04/01 09:44:18;;;;;;;;;27.00;19.25;;;;;5.50;55.33;99968.97;5021445;28;46198;-71
2022/04/01 09:46:50;;;;;;;;;15.50;15.00;;;;;6.32;55.25;100110.50;5034256;28;45462;-71
2022/04/01 09:49:31;;;;;;;;;12.25;11.25;;;;;6.82;55.55;100195.28;5021251;28;45562;-70
2022/04/01 09:51:57;;;;;;;;;13.75;13.25;;;;;5.51;55.41;99984.94;5017514;28;45739;-70
2022/04/01 09:54:24;;;;;;;;;18.75;13.00;;;;;5.45;54.96;99936.13;5024234;28;45656;-70
2022/04/01 09:56:54;;;;;;;;;16.50;14.25;;;;;5.55;54.83;99985.94;5034787;28;45463;-70
2022/04/01 09:59:21;;;;;;;;;15.00;14.00;;;;;6.99;55.70;100222.38;5025283;28;45805;-70
2022/04/01 10:01:47;;;;;;;;;16.50;15.75;;;;;6.87;55.82;100185.72;5027744;28;45416;-70
2022/04/01 10:04:14;;;;;;;;;19.50;15.25;;;;;6.90;55.89;100190.22;5027885;28;45456;-71
2022/04/01 10:06:40;;;;;;;;;11.50;11.50;;;;;6.86;55.35;100180.34;5014945;28;45482;-71
2022/04/01 10:09:10;;;;;;;;;31.25;22.25;;;;;6.66;55.02;100156.72;5029040;28;46273;-70
2022/04/01 10:11:41;;;;;;;;;25.25;21.75;;;;;5.85;55.56;100014.31;5022040;28;45502;-71
2022/04/01 10:14:14;;;;;;;;;17.50;16.00;;;;;7.07;54.41;100241.22;5022258;28;45723;-70
2022/04/01 10:16:43;;;;;;;;;10.50;10.50;;;;;6.55;54.90;100152.78;5023459;28;45606;-70
2022/04/01 10:19:12;;;;;;;;;19.75;16.25;;;;;6.71;55.23;100167.47;5020642;28;45628;-71
2022/04/01 10:21:40;;;;;;;;;17.50;15.00;;;;;7.22;55.78;100238.16;5015656;28;45681;-70
2022/04/01 10:24:31;;;;;;;;;26.50;19.50;;;;;7.24;54.20;100241.75;5020402;28;45435;-71
2022/04/01 10:27:03;;;;;;;;;22.75;21.50;;;;;7.09;54.42;100243.06;5014998;28;45519;-70
2022/04/01 10:29:29;;;;;;;;;14.75;13.25;;;;;7.04;54.50;100247.31;5013573;28;46163;-70
2022/04/01 10:32:15;;;;;;;;;21.00;18.00;;;;;7.06;54.99;100244.72;5014058;28;45401;-70
2022/04/01 10:34:47;;;;;;;;;15.50;13.75;;;;;6.99;54.78;100219.72;5028632;28;45495;-71
2022/04/01 10:37:15;;;;;;;;;17.75;15.00;;;;;6.48;54.32;100140.19;5035077;28;45376;-71
2022/04/01 10:39:48;;;;;;;;;17.00;11.25;;;;;7.07;54.99;100244.78;5034024;28;46178;-71
2022/04/01 10:42:14;;;;;;;;;17.75;17.00;;;;;7.07;54.47;100247.44;5034183;28;45431;-71
2022/04/01 10:44:46;;;;;;;;;15.75;11.75;;;;;7.28;55.09;100249.00;5033867;28;45450;-71
2022/04/01 10:47:12;;;;;;;;;24.25;21.00;;;;;7.01;53.98;100208.31;5034497;28;45463;-70
2022/04/01 10:52:24;;;;;;;;;11.50;11.50;;;;;7.20;53.92;100246.06;5034773;28;45846;-70
2022/04/01 10:55:06;;;;;;;;;14.75;11.00;;;;;7.35;54.44;100266.91;5034401;28;45304;-71
2022/04/01 10:57:44;;;;;;;;;13.00;13.00;;;;;7.43;54.76;100276.03;5034115;28;45530;-72
2022/04/01 11:00:14;;;;;;;;;15.00;12.25;;;;;7.36;54.35;100250.13;5034430;28;46221;-70
2022/04/01 11:02:41;;;;;;;;;25.00;16.50;;;;;7.64;54.67;100281.13;5034439;28;45232;-72
2022/04/01 11:05:22;;;;;;;;;30.00;29.00;;;;;7.59;53.25;100274.75;5034401;28;45304;-70
2022/04/01 11:08:19;;;;;;;;;13.25;11.25;;;;;7.44;53.00;100279.56;5034472;28;45394;-70
2022/04/01 11:11:04;;;;;;;;;15.75;15.75;;;;;7.38;54.46;100288.28;5034464;28;45495;-72
2022/04/01 11:13:29;;;;;;;;;17.50;15.25;;;;;7.30;54.60;100280.06;5033622;28;45501;-70
2022/04/01 11:16:15;;;;;;;;;23.00;23.00;;;;;7.18;53.25;100256.66;5033606;28;45289;-69
2022/04/01 11:19:17;;;;;;;;;15.00;15.00;;;;;7.36;53.63;100290.88;5034476;28;45589;-71
2022/04/01 11:21:45;;;;;;;;;38.75;30.00;;;;;7.37;54.21;100303.31;5034519;28;45983;-70
2022/04/01 11:24:37;;;;;;;;;18.50;17.00;;;;;7.39;53.58;100303.34;5033910;28;45427;-71
2022/04/01 11:27:20;;;;;;;;;10.00;9.00;;;;;6.68;52.97;100164.72;5034067;28;45399;-70
2022/04/01 11:30:06;;;;;;;;;14.00;12.25;;;;;7.22;53.03;100273.59;5034684;28;45690;-72
2022/04/01 11:32:38;;;;;;;;;13.25;11.25;;;;;7.20;53.51;100283.28;5033461;28;45487;-71
2022/04/01 11:35:09;;;;;;;;;29.75;26.25;;;;;7.45;53.64;100313.28;5034017;28;45464;-71
2022/04/01 11:37:42;;;;;;;;;16.25;14.50;;;;;7.42;53.26;100299.91;5033972;28;45450;-70
2022/04/01 11:40:11;;;;;;;;;26.25;20.00;;;;;7.45;53.49;100313.28;5035026;28;45580;-70
2022/04/01 11:43:03;;;;;;;;;19.00;17.50;;;;;7.44;52.48;100308.81;5033858;28;45419;-70
2022/04/01 11:45:33;;;;;;;;;30.75;29.50;;;;;6.98;53.29;100245.38;5034001;28;45445;-70
2022/04/01 11:48:00;;;;;;;;;36.00;27.75;;;;;7.35;52.79;100320.97;5015714;28;45321;-70
2022/04/01 11:50:26;;;;;;;;;32.75;26.00;;;;;7.23;53.13;100307.28;5034278;28;45536;-69
2022/04/01 11:52:57;;;;;;;;;14.50;11.75;;;;;7.18;53.64;100299.16;5034000;28;45521;-69
2022/04/01 11:55:28;;;;;;;;;25.75;20.50;;;;;7.18;53.52;100280.56;5033232;28;45535;-69
2022/04/01 11:57:57;;;;;;;;;22.75;16.50;;;;;6.99;53.81;100254.25;5033286;28;45434;-69